createdAt,value
2023-05-15T00:02:27.977Z,15.28
2023-05-15T00:04:55.266Z,15.05
2023-05-15T00:07:22.339Z,15.12
2023-05-15T00:09:49.342Z,15.36
2023-05-15T00:12:16.322Z,15.32
2023-05-15T00:14:43.399Z,14.97
2023-05-15T00:17:10.561Z,15.19
2023-05-15T00:19:37.563Z,15.26
2023-05-15T00:22:04.802Z,15.18
2023-05-15T00:24:31.932Z,15.11
2023-05-15T00:27:00.431Z,15.18
2023-05-15T00:29:28.003Z,15.25
2023-05-15T00:31:55.196Z,15.27
2023-05-15T00:34:25.859Z,15.20
2023-05-15T00:36:53.014Z,15.01
2023-05-15T00:39:20.082Z,15.16
2023-05-15T00:41:49.970Z,15.03
2023-05-15T00:44:20.151Z,15.11
2023-05-15T00:46:48.811Z,15.15
2023-05-15T00:49:18.639Z,14.99
2023-05-15T00:51:46.306Z,15.15
2023-05-15T00:54:13.522Z,15.23
2023-05-15T00:56:44.973Z,15.20
2023-05-15T00:59:13.677Z,15.13
2023-05-15T01:01:40.803Z,14.90
2023-05-15T01:04:08.025Z,15.11
2023-05-15T01:06:35.066Z,15.05
2023-05-15T01:09:04.059Z,15.12
2023-05-15T01:11:36.045Z,14.98
2023-05-15T01:14:06.077Z,15.09
2023-05-15T01:16:34.145Z,15.15
2023-05-15T01:19:04.578Z,15.13
2023-05-15T01:21:34.768Z,15.12
2023-05-15T01:24:20.444Z,15.12
2023-05-15T01:27:20.898Z,15.12
2023-05-15T01:29:57.220Z,15.11
2023-05-15T01:32:38.264Z,15.07
2023-05-15T01:35:08.601Z,15.09
2023-05-15T01:37:41.746Z,15.08
2023-05-15T01:40:11.999Z,14.97
2023-05-15T01:42:46.654Z,15.06
2023-05-15T01:45:17.402Z,15.02
2023-05-15T01:47:46.493Z,15.01
2023-05-15T01:50:15.984Z,14.92
2023-05-15T01:52:56.694Z,14.95
2023-05-15T01:55:27.886Z,14.97
2023-05-15T01:57:56.915Z,14.89
2023-05-15T02:00:25.527Z,14.78
2023-05-15T02:02:53.656Z,14.61
2023-05-15T02:05:21.043Z,14.70
2023-05-15T02:07:48.651Z,14.68
2023-05-15T02:10:18.554Z,14.80
2023-05-15T02:12:50.237Z,14.76
2023-05-15T02:15:18.718Z,14.81
2023-05-15T02:17:47.094Z,14.80
2023-05-15T02:20:14.523Z,14.81
2023-05-15T02:22:41.646Z,14.83
2023-05-15T02:25:09.077Z,14.55
2023-05-15T02:27:46.999Z,14.78
2023-05-15T02:30:43.557Z,14.68
2023-05-15T02:33:17.478Z,14.50
2023-05-15T02:35:57.131Z,14.54
2023-05-15T02:38:29.586Z,14.57
2023-05-15T02:40:58.159Z,14.55
2023-05-15T02:43:26.462Z,14.51
2023-05-15T02:45:56.432Z,14.65
2023-05-15T02:48:24.726Z,14.59
2023-05-15T02:50:53.406Z,14.55
2023-05-15T02:53:20.633Z,14.55
2023-05-15T02:55:48.111Z,14.65
2023-05-15T02:58:15.258Z,14.67
2023-05-15T03:00:42.354Z,14.68
2023-05-15T03:03:09.406Z,14.72
2023-05-15T03:05:36.513Z,14.47
2023-05-15T03:08:03.484Z,14.58
2023-05-15T03:10:48.889Z,14.58
2023-05-15T03:13:16.094Z,14.58
2023-05-15T03:15:45.524Z,14.69
2023-05-15T03:18:12.728Z,14.68
2023-05-15T03:20:39.930Z,14.77
2023-05-15T03:23:07.035Z,14.68
2023-05-15T03:25:34.220Z,14.84
2023-05-15T03:28:01.347Z,14.86
2023-05-15T03:30:28.461Z,14.78
2023-05-15T03:32:57.648Z,14.92
2023-05-15T03:35:26.341Z,14.84
2023-05-15T03:37:53.607Z,14.95
2023-05-15T03:40:20.605Z,15.00
2023-05-15T03:42:47.614Z,14.99
2023-05-15T03:45:14.692Z,14.99
2023-05-15T03:47:42.963Z,15.00
2023-05-15T03:50:10.605Z,14.85
2023-05-15T03:52:39.536Z,14.97
2023-05-15T03:55:07.582Z,14.98
2023-05-15T03:57:35.866Z,15.03
2023-05-15T04:00:07.441Z,14.92
2023-05-15T04:02:40.710Z,14.88
2023-05-15T04:05:08.883Z,15.00
2023-05-15T04:07:36.915Z,15.01
2023-05-15T04:10:04.349Z,14.93
2023-05-15T04:12:34.674Z,14.89
2023-05-15T04:15:19.260Z,14.98
2023-05-15T04:17:48.192Z,15.02
2023-05-15T04:20:16.997Z,15.03
2023-05-15T04:22:48.014Z,14.78
2023-05-15T04:25:16.402Z,15.03
2023-05-15T04:27:43.924Z,15.03
2023-05-15T04:30:11.978Z,14.99
2023-05-15T04:32:40.034Z,15.06
2023-05-15T04:35:12.550Z,14.96
2023-05-15T04:37:40.894Z,15.12
2023-05-15T04:40:09.312Z,15.05
2023-05-15T04:42:39.242Z,15.14
2023-05-15T04:45:08.041Z,14.94
2023-05-15T04:47:35.695Z,15.17
2023-05-15T04:50:03.084Z,15.14
2023-05-15T04:52:30.476Z,14.91
2023-05-15T04:54:57.606Z,14.82
2023-05-15T04:57:25.846Z,14.87
2023-05-15T04:59:53.237Z,14.87
2023-05-15T05:02:22.641Z,14.87
2023-05-15T05:04:50.027Z,14.54
2023-05-15T05:07:17.355Z,14.58
2023-05-15T05:09:45.016Z,14.85
2023-05-15T05:12:12.132Z,14.83
2023-05-15T05:14:40.791Z,14.72
2023-05-15T05:17:08.055Z,14.61
2023-05-15T05:19:35.082Z,14.76
2023-05-15T05:22:05.164Z,14.71
2023-05-15T05:24:32.750Z,14.85
2023-05-15T05:27:00.399Z,14.80
2023-05-15T05:29:27.643Z,14.90
2023-05-15T05:31:54.871Z,14.94
2023-05-15T05:34:22.623Z,14.92
2023-05-15T05:36:50.224Z,14.86
2023-05-15T05:39:18.076Z,14.76
2023-05-15T05:41:45.535Z,14.87
2023-05-15T05:44:12.703Z,14.78
2023-05-15T05:46:39.779Z,14.77
2023-05-15T05:49:07.007Z,14.78
2023-05-15T05:51:39.214Z,14.85
2023-05-15T05:54:06.409Z,14.77
2023-05-15T05:56:33.786Z,14.77
2023-05-15T05:59:02.299Z,14.66
2023-05-15T06:01:29.853Z,14.53
2023-05-15T06:03:57.669Z,14.79
2023-05-15T06:06:24.907Z,14.40
2023-05-15T06:08:54.200Z,14.77
2023-05-15T06:11:25.130Z,14.65
2023-05-15T06:13:52.868Z,14.71
2023-05-15T06:16:20.162Z,14.70
2023-05-15T06:18:47.261Z,14.53
2023-05-15T06:21:14.416Z,14.80
2023-05-15T06:23:41.609Z,14.64
2023-05-15T06:26:08.848Z,14.77
2023-05-15T06:28:35.920Z,14.71
2023-05-15T06:31:03.265Z,14.67
2023-05-15T06:33:30.603Z,14.72
2023-05-15T06:35:57.694Z,14.29
2023-05-15T06:38:24.802Z,14.13
2023-05-15T06:40:51.922Z,14.54
2023-05-15T06:43:19.148Z,13.85
2023-05-15T06:45:46.255Z,14.53
2023-05-15T06:48:13.278Z,14.52
2023-05-15T06:50:40.476Z,14.54
2023-05-15T06:53:07.675Z,14.49
2023-05-15T06:55:36.599Z,14.24
2023-05-15T06:58:04.802Z,14.52
2023-05-15T07:00:32.010Z,14.43
2023-05-15T07:02:59.317Z,14.61
2023-05-15T07:05:26.729Z,14.62
2023-05-15T07:07:54.165Z,14.63
2023-05-15T07:10:21.314Z,14.66
2023-05-15T07:12:48.451Z,14.16
2023-05-15T07:15:17.701Z,14.86
2023-05-15T07:17:44.968Z,14.93
2023-05-15T07:20:12.415Z,14.74
2023-05-15T07:22:51.823Z,15.02
2023-05-15T07:25:22.853Z,15.02
2023-05-15T07:27:49.982Z,15.11
2023-05-15T07:30:17.062Z,15.06
2023-05-15T07:32:44.443Z,15.30
2023-05-15T07:35:11.771Z,15.37
2023-05-15T07:37:39.069Z,15.42
2023-05-15T07:40:07.343Z,15.18
2023-05-15T07:42:34.382Z,15.43
2023-05-15T07:45:01.543Z,15.37
2023-05-15T07:47:29.176Z,15.32
2023-05-15T07:49:56.627Z,15.54
2023-05-15T07:52:23.736Z,15.65
2023-05-15T07:54:51.018Z,15.46
2023-05-15T07:57:18.453Z,15.77
2023-05-15T07:59:45.516Z,15.76
2023-05-15T08:02:12.624Z,15.48
2023-05-15T08:04:39.817Z,15.93
2023-05-15T08:07:07.405Z,15.85
2023-05-15T08:09:34.718Z,16.02
2023-05-15T08:12:21.270Z,16.07
2023-05-15T08:14:52.851Z,16.09
2023-05-15T08:17:20.927Z,16.27
2023-05-15T08:19:48.704Z,16.35
2023-05-15T08:22:16.327Z,16.43
2023-05-15T08:24:43.620Z,16.25
2023-05-15T08:27:10.985Z,16.49
2023-05-15T08:29:39.749Z,16.47
2023-05-15T08:32:09.107Z,16.53
2023-05-15T08:34:36.310Z,16.60
2023-05-15T08:37:05.049Z,16.63
2023-05-15T08:39:32.586Z,16.91
2023-05-15T08:42:21.932Z,16.94
2023-05-15T08:44:49.716Z,17.09
2023-05-15T08:47:18.368Z,17.09
2023-05-15T08:49:52.916Z,17.13
2023-05-15T08:52:20.890Z,17.07
2023-05-15T08:54:48.789Z,16.74
2023-05-15T08:57:17.272Z,16.71
2023-05-15T08:59:44.746Z,16.43
2023-05-15T09:02:12.207Z,16.65
2023-05-15T09:04:39.503Z,16.59
2023-05-15T09:07:06.798Z,16.98
2023-05-15T09:09:35.458Z,17.00
2023-05-15T09:12:04.264Z,17.07
2023-05-15T09:14:31.433Z,17.01
2023-05-15T09:16:59.497Z,17.07
2023-05-15T09:19:27.286Z,17.23
2023-05-15T09:21:54.549Z,17.25
2023-05-15T09:24:25.587Z,17.42
2023-05-15T09:27:08.620Z,17.36
2023-05-15T09:29:38.106Z,17.41
2023-05-15T09:32:10.418Z,17.45
2023-05-15T09:34:40.090Z,17.51
2023-05-15T09:37:27.490Z,17.54
2023-05-15T09:39:54.637Z,17.57
2023-05-15T09:42:24.685Z,17.16
2023-05-15T09:44:51.910Z,17.53
2023-05-15T09:47:32.089Z,17.35
2023-05-15T09:49:59.356Z,17.50
2023-05-15T09:52:28.664Z,17.61
2023-05-15T09:54:56.886Z,17.58
2023-05-15T09:57:24.286Z,17.44
2023-05-15T09:59:51.465Z,17.41
2023-05-15T10:02:31.375Z,17.58
2023-05-15T10:04:59.205Z,17.67
2023-05-15T10:07:30.722Z,17.70
2023-05-15T10:09:58.752Z,17.71
2023-05-15T10:12:27.006Z,17.27
2023-05-15T10:14:57.462Z,17.76
2023-05-15T10:17:26.148Z,17.53
2023-05-15T10:19:58.335Z,17.72
2023-05-15T10:22:30.844Z,17.81
2023-05-15T10:25:05.252Z,17.56
2023-05-15T10:27:35.494Z,17.83
2023-05-15T10:30:04.301Z,17.63
2023-05-15T10:32:34.299Z,17.80
2023-05-15T10:35:02.939Z,17.80
2023-05-15T10:37:30.844Z,18.15
2023-05-15T10:39:58.579Z,18.09
2023-05-15T10:42:26.932Z,18.15
2023-05-15T10:44:59.997Z,17.83
2023-05-15T10:47:27.593Z,17.82
2023-05-15T10:49:54.790Z,17.78
2023-05-15T10:52:22.052Z,17.80
2023-05-15T10:54:49.304Z,17.93
2023-05-15T10:57:16.520Z,17.84
2023-05-15T10:59:44.331Z,17.82
2023-05-15T11:02:24.736Z,18.03
2023-05-15T11:05:03.743Z,17.94
2023-05-15T11:07:31.182Z,18.07
2023-05-15T11:09:58.347Z,18.03
2023-05-15T11:12:25.471Z,18.09
2023-05-15T11:14:52.477Z,18.23
2023-05-15T11:17:19.697Z,18.22
2023-05-15T11:19:49.892Z,18.22
2023-05-15T11:22:19.950Z,18.03
2023-05-15T11:25:10.638Z,18.01
2023-05-15T11:27:37.791Z,18.30
2023-05-15T11:30:18.485Z,18.07
2023-05-15T11:32:51.905Z,18.37
2023-05-15T11:35:28.911Z,18.40
2023-05-15T11:37:58.635Z,18.40
2023-05-15T11:40:29.007Z,18.49
2023-05-15T11:43:22.592Z,18.59
2023-05-15T11:45:58.259Z,18.64
2023-05-15T11:48:31.607Z,18.53
2023-05-15T11:50:58.859Z,18.40
2023-05-15T11:53:26.781Z,18.54
2023-05-15T11:55:54.665Z,18.36
2023-05-15T11:58:24.184Z,18.72
2023-05-15T12:00:52.551Z,18.76
2023-05-15T12:03:27.581Z,19.00
2023-05-15T12:08:25.144Z,19.11
2023-05-15T12:10:52.284Z,19.16
2023-05-15T12:13:19.390Z,19.19
2023-05-15T12:15:47.673Z,19.28
2023-05-15T12:18:14.766Z,19.34
2023-05-15T12:23:17.761Z,19.46
2023-05-15T12:25:47.592Z,19.18
2023-05-15T12:28:15.246Z,19.35
2023-05-15T12:30:43.312Z,19.44
2023-05-15T12:33:11.373Z,19.38
2023-05-15T12:35:49.758Z,19.40
2023-05-15T12:38:17.012Z,19.53
2023-05-15T12:40:49.762Z,19.49
2023-05-15T12:43:16.974Z,19.03
2023-05-15T12:45:44.234Z,19.42
2023-05-15T12:48:15.575Z,19.44
2023-05-15T12:50:45.345Z,19.15
2023-05-15T12:53:16.869Z,19.15
2023-05-15T12:55:46.340Z,19.10
2023-05-15T12:58:15.384Z,18.93
2023-05-15T13:00:44.996Z,19.24
2023-05-15T13:03:14.060Z,19.41
2023-05-15T13:05:45.894Z,19.52
2023-05-15T13:08:17.541Z,19.53
2023-05-15T13:10:45.653Z,19.48
2023-05-15T13:13:13.610Z,19.62
2023-05-15T13:15:43.930Z,19.76
2023-05-15T13:18:15.567Z,19.89
2023-05-15T13:20:47.872Z,19.93
2023-05-15T13:23:20.158Z,20.06
2023-05-15T13:25:47.910Z,19.53
2023-05-15T13:28:16.068Z,20.25
2023-05-15T13:30:43.556Z,19.86
2023-05-15T13:33:12.576Z,20.18
2023-05-15T13:35:41.343Z,20.26
2023-05-15T13:38:11.287Z,20.47
2023-05-15T13:40:39.213Z,20.47
2023-05-15T13:43:06.896Z,20.26
2023-05-15T13:45:34.524Z,19.90
2023-05-15T13:48:01.807Z,20.05
2023-05-15T13:50:29.134Z,19.97
2023-05-15T13:52:56.523Z,20.10
2023-05-15T13:55:24.014Z,19.93
2023-05-15T13:57:52.232Z,19.96
2023-05-15T14:00:20.313Z,19.88
2023-05-15T14:02:47.498Z,19.23
2023-05-15T14:05:15.628Z,19.76
2023-05-15T14:07:42.941Z,19.82
2023-05-15T14:10:10.892Z,19.48
2023-05-15T14:12:38.601Z,19.90
2023-05-15T14:15:06.590Z,19.91
2023-05-15T14:17:33.730Z,19.52
2023-05-15T14:20:00.799Z,19.36
2023-05-15T14:22:27.836Z,19.58
2023-05-15T14:24:55.039Z,19.05
2023-05-15T14:27:22.178Z,19.64
2023-05-15T14:29:49.729Z,19.42
2023-05-15T14:32:17.369Z,19.41
2023-05-15T14:34:44.766Z,19.80
2023-05-15T14:37:12.136Z,19.76
2023-05-15T14:39:39.306Z,19.79
2023-05-15T14:42:06.982Z,19.86
2023-05-15T14:44:35.125Z,19.68
2023-05-15T14:47:10.098Z,19.85
2023-05-15T14:49:37.902Z,19.81
2023-05-15T14:52:07.769Z,19.91
2023-05-15T14:54:38.181Z,19.87
2023-05-15T14:57:05.728Z,19.87
2023-05-15T14:59:32.798Z,19.74
2023-05-15T15:01:59.882Z,19.86
2023-05-15T15:04:29.189Z,19.82
2023-05-15T15:06:59.048Z,19.79
2023-05-15T15:09:28.364Z,19.76
2023-05-15T15:11:56.179Z,19.79
2023-05-15T15:14:23.413Z,19.69
2023-05-15T15:16:50.746Z,19.81
2023-05-15T15:19:19.947Z,19.78
2023-05-15T15:21:47.822Z,19.93
2023-05-15T15:24:16.831Z,20.00
2023-05-15T15:26:44.004Z,19.76
2023-05-15T15:29:11.067Z,19.79
2023-05-15T15:31:38.356Z,19.71
2023-05-15T15:34:05.902Z,19.64
2023-05-15T15:36:33.177Z,19.65
2023-05-15T15:39:00.270Z,19.51
2023-05-15T15:41:31.600Z,19.63
2023-05-15T15:43:58.851Z,19.60
2023-05-15T15:46:25.949Z,19.56
2023-05-15T15:48:53.310Z,19.63
2023-05-15T15:51:20.399Z,19.65
2023-05-15T15:53:47.662Z,19.63
2023-05-15T15:56:14.832Z,19.59
2023-05-15T15:58:42.027Z,19.54
2023-05-15T16:01:09.415Z,19.48
2023-05-15T16:03:36.659Z,19.53
2023-05-15T16:06:03.806Z,19.56
2023-05-15T16:08:31.009Z,19.50
2023-05-15T16:10:58.103Z,19.48
2023-05-15T16:13:25.278Z,19.51
2023-05-15T16:15:52.288Z,19.53
2023-05-15T16:18:19.315Z,19.34
2023-05-15T16:20:47.924Z,19.25
2023-05-15T16:23:16.440Z,18.93
2023-05-15T16:25:45.284Z,19.03
2023-05-15T16:28:12.403Z,18.98
2023-05-15T16:30:48.797Z,18.91
2023-05-15T16:33:18.111Z,18.86
2023-05-15T16:35:46.018Z,18.66
2023-05-15T16:38:13.831Z,18.66
2023-05-15T16:40:41.398Z,18.72
2023-05-15T16:43:08.578Z,18.59
2023-05-15T16:45:35.825Z,18.61
2023-05-15T16:48:03.221Z,18.55
2023-05-15T16:50:36.200Z,18.52
2023-05-15T16:53:04.616Z,18.50
2023-05-15T16:55:32.513Z,18.44
2023-05-15T16:57:59.635Z,18.44
2023-05-15T17:00:27.326Z,18.29
2023-05-15T17:02:55.044Z,18.34
2023-05-15T17:05:22.120Z,18.37
2023-05-15T17:07:49.184Z,18.36
2023-05-15T17:10:16.370Z,18.39
2023-05-15T17:12:43.590Z,18.48
2023-05-15T17:15:11.671Z,18.31
2023-05-15T17:17:38.898Z,18.28
2023-05-15T17:20:06.856Z,18.50
2023-05-15T17:22:34.083Z,18.53
2023-05-15T17:25:01.128Z,18.59
2023-05-15T17:27:28.196Z,18.57
2023-05-15T17:29:55.246Z,18.68
2023-05-15T17:32:22.819Z,18.74
2023-05-15T17:34:52.775Z,18.68
2023-05-15T17:37:20.101Z,18.76
2023-05-15T17:39:47.206Z,18.81
2023-05-15T17:42:14.376Z,18.82
2023-05-15T17:44:41.435Z,18.78
2023-05-15T17:47:10.307Z,18.85
2023-05-15T17:49:38.838Z,18.74
2023-05-15T17:52:07.340Z,18.52
2023-05-15T17:54:34.438Z,18.28
2023-05-15T17:57:01.528Z,18.21
2023-05-15T17:59:31.155Z,18.06
2023-05-15T18:01:58.774Z,18.24
2023-05-15T18:04:26.130Z,18.43
2023-05-15T18:06:53.360Z,18.31
2023-05-15T18:09:24.557Z,18.43
2023-05-15T18:11:52.022Z,18.53
2023-05-15T18:14:19.091Z,18.48
2023-05-15T18:16:46.158Z,18.55
2023-05-15T18:19:13.460Z,18.56
2023-05-15T18:21:40.718Z,18.56
2023-05-15T18:24:07.835Z,18.45
2023-05-15T18:26:34.934Z,18.35
2023-05-15T18:29:02.148Z,18.64
2023-05-15T18:31:29.326Z,18.57
2023-05-15T18:33:56.472Z,18.53
2023-05-15T18:36:23.588Z,18.38
2023-05-15T18:38:50.919Z,18.17
2023-05-15T18:41:17.947Z,18.32
2023-05-15T18:43:45.019Z,18.21
2023-05-15T18:46:12.047Z,18.33
2023-05-15T18:48:39.143Z,18.37
2023-05-15T18:51:06.296Z,18.41
2023-05-15T18:53:33.446Z,18.45
2023-05-15T18:56:00.476Z,18.52
2023-05-15T18:58:27.548Z,18.52
2023-05-15T19:00:56.638Z,18.55
2023-05-15T19:03:25.766Z,18.57
2023-05-15T19:05:53.118Z,18.28
2023-05-15T19:08:20.115Z,18.38
2023-05-15T19:10:51.022Z,18.31
2023-05-15T19:13:19.042Z,18.25
2023-05-15T19:15:53.351Z,18.05
2023-05-15T19:18:20.708Z,18.20
2023-05-15T19:20:52.197Z,18.20
2023-05-15T19:23:20.803Z,18.18
2023-05-15T19:25:48.378Z,18.20
2023-05-15T19:28:15.483Z,17.91
2023-05-15T19:30:42.727Z,17.86
2023-05-15T19:33:09.998Z,18.13
2023-05-15T19:35:37.795Z,18.12
2023-05-15T19:38:04.972Z,18.11
2023-05-15T19:40:32.147Z,18.12
2023-05-15T19:42:59.329Z,18.09
2023-05-15T19:45:26.452Z,18.10
2023-05-15T19:47:53.570Z,18.06
2023-05-15T19:50:20.687Z,18.17
2023-05-15T19:52:47.802Z,18.16
2023-05-15T19:55:15.108Z,18.16
2023-05-15T19:57:44.979Z,18.16
2023-05-15T20:00:12.846Z,18.12
2023-05-15T20:02:41.419Z,18.11
2023-05-15T20:05:09.287Z,18.15
2023-05-15T20:07:36.964Z,18.02
2023-05-15T20:10:04.878Z,18.16
2023-05-15T20:12:31.866Z,18.11
2023-05-15T20:14:58.940Z,18.07
2023-05-15T20:17:26.082Z,18.14
2023-05-15T20:19:53.951Z,18.12
2023-05-15T20:22:21.221Z,18.13
2023-05-15T20:24:48.518Z,18.09
2023-05-15T20:27:15.658Z,18.06
2023-05-15T20:29:43.916Z,17.87
2023-05-15T20:32:13.268Z,18.00
2023-05-15T20:34:42.677Z,17.95
2023-05-15T20:37:11.633Z,17.23
2023-05-15T20:39:39.539Z,17.40
2023-05-15T20:42:07.158Z,17.57
2023-05-15T20:44:36.530Z,17.35
2023-05-15T20:47:04.119Z,17.72
2023-05-15T20:49:32.066Z,17.78
2023-05-15T20:52:00.413Z,17.73
2023-05-15T20:54:27.514Z,17.52
2023-05-15T20:56:54.616Z,17.75
2023-05-15T20:59:21.929Z,17.39
2023-05-15T21:01:50.813Z,17.60
2023-05-15T21:04:17.988Z,17.51
2023-05-15T21:06:45.797Z,17.72
2023-05-15T21:09:14.520Z,17.05
2023-05-15T21:11:42.153Z,17.51
2023-05-15T21:14:09.330Z,17.43
2023-05-15T21:16:36.532Z,17.47
2023-05-15T21:19:03.766Z,16.89
2023-05-15T21:21:31.167Z,17.21
2023-05-15T21:24:03.486Z,17.30
2023-05-15T21:26:30.847Z,17.13
2023-05-15T21:29:01.446Z,17.13
2023-05-15T21:31:28.547Z,17.12
2023-05-15T21:33:56.047Z,16.52
2023-05-15T21:36:23.258Z,16.79
2023-05-15T21:38:50.537Z,16.98
2023-05-15T21:41:17.732Z,16.97
2023-05-15T21:43:44.898Z,16.78
2023-05-15T21:46:12.103Z,16.63
2023-05-15T21:48:39.768Z,16.89
2023-05-15T21:51:06.837Z,16.54
2023-05-15T21:53:33.981Z,16.74
2023-05-15T21:56:01.838Z,16.44
2023-05-15T21:58:29.217Z,16.70
2023-05-15T22:00:56.309Z,16.50
2023-05-15T22:03:23.934Z,15.99
2023-05-15T22:05:53.014Z,16.24
2023-05-15T22:08:20.640Z,16.45
2023-05-15T22:10:48.947Z,16.45
2023-05-15T22:13:16.139Z,16.50
2023-05-15T22:15:43.392Z,16.13
2023-05-15T22:18:10.726Z,16.17
2023-05-15T22:20:37.977Z,16.46
2023-05-15T22:23:05.587Z,16.41
2023-05-15T22:25:32.994Z,16.57
2023-05-15T22:28:00.096Z,16.62
2023-05-15T22:30:27.560Z,16.61
2023-05-15T22:32:54.980Z,16.62
2023-05-15T22:35:22.343Z,16.36
2023-05-15T22:37:49.473Z,16.63
2023-05-15T22:40:16.755Z,16.70
2023-05-15T22:42:43.986Z,16.50
2023-05-15T22:45:11.651Z,16.64
2023-05-15T22:47:38.721Z,16.24
2023-05-15T22:50:06.642Z,16.33
2023-05-15T22:52:33.779Z,16.31
2023-05-15T22:55:00.889Z,16.46
2023-05-15T22:57:28.456Z,16.43
2023-05-15T22:59:55.671Z,16.43
2023-05-15T23:02:22.768Z,16.43
2023-05-15T23:04:49.788Z,16.10
2023-05-15T23:07:17.441Z,16.52
2023-05-15T23:09:44.487Z,16.54
2023-05-15T23:12:11.519Z,15.89
2023-05-15T23:14:38.709Z,16.54
2023-05-15T23:17:05.879Z,16.34
2023-05-15T23:19:32.913Z,16.57
2023-05-15T23:22:00.060Z,16.63
2023-05-15T23:24:27.149Z,15.98
2023-05-15T23:26:54.220Z,16.61
2023-05-15T23:29:21.212Z,16.23
2023-05-15T23:31:48.170Z,16.18
2023-05-15T23:34:15.171Z,16.37
2023-05-15T23:36:42.385Z,16.09
2023-05-15T23:39:09.468Z,16.46
2023-05-15T23:41:36.593Z,16.51
2023-05-15T23:44:03.909Z,16.55
2023-05-15T23:46:31.270Z,16.57
2023-05-15T23:48:58.520Z,16.40
2023-05-15T23:51:25.587Z,16.12
2023-05-15T23:53:52.745Z,16.17
2023-05-15T23:56:19.828Z,16.12
2023-05-15T23:58:46.850Z,16.14
